sensor_id;sensor_type;location;lat;lon;timestamp;temperature;humidity
62154;DHT22;48140;45.486;9.226;2023-05-07T00:33:38;21.60;83.70
62154;DHT22;48140;45.486;9.226;2023-05-07T05:55:54;18.30;96.70
62154;DHT22;48140;45.486;9.226;2023-05-07T05:58:46;18.40;96.50
62154;DHT22;48140;45.486;9.226;2023-05-07T06:01:38;18.50;96.50
62154;DHT22;48140;45.486;9.226;2023-05-07T06:04:04;18.60;96.00
62154;DHT22;48140;45.486;9.226;2023-05-07T06:14:43;18.90;94.40
62154;DHT22;48140;45.486;9.226;2023-05-07T06:17:18;19.20;93.90
62154;DHT22;48140;45.486;9.226;2023-05-07T06:50:39;19.60;91.70
62154;DHT22;48140;45.486;9.226;2023-05-07T08:47:54;23.10;69.00
62154;DHT22;48140;45.486;9.226;2023-05-07T08:50:53;23.20;72.70
62154;DHT22;48140;45.486;9.226;2023-05-07T09:40:06;24.50;74.70
62154;DHT22;48140;45.486;9.226;2023-05-07T10:04:01;24.10;75.70
62154;DHT22;48140;45.486;9.226;2023-05-07T12:59:45;28.90;37.90
62154;DHT22;48140;45.486;9.226;2023-05-07T13:02:14;29.20;37.70
62154;DHT22;48140;45.486;9.226;2023-05-07T13:04:39;29.50;37.80
62154;DHT22;48140;45.486;9.226;2023-05-07T13:07:11;29.80;35.90
62154;DHT22;48140;45.486;9.226;2023-05-07T13:09:37;30.20;35.40
62154;DHT22;48140;45.486;9.226;2023-05-07T13:12:03;30.90;34.30
62154;DHT22;48140;45.486;9.226;2023-05-07T13:14:29;31.30;33.40
62154;DHT22;48140;45.486;9.226;2023-05-07T14:06:06;30.00;33.00
62154;DHT22;48140;45.486;9.226;2023-05-07T14:08:32;30.30;32.80
62154;DHT22;48140;45.486;9.226;2023-05-07T14:10:57;30.50;31.00
62154;DHT22;48140;45.486;9.226;2023-05-07T14:13:23;30.50;31.10
62154;DHT22;48140;45.486;9.226;2023-05-07T14:15:49;30.50;31.10
62154;DHT22;48140;45.486;9.226;2023-05-07T14:18:15;30.90;30.90
62154;DHT22;48140;45.486;9.226;2023-05-07T14:20:41;30.10;31.40
62154;DHT22;48140;45.486;9.226;2023-05-07T14:23:09;30.20;30.40
62154;DHT22;48140;45.486;9.226;2023-05-07T14:25:35;30.40;32.20
62154;DHT22;48140;45.486;9.226;2023-05-07T14:28:00;30.20;30.70
62154;DHT22;48140;45.486;9.226;2023-05-07T14:30:26;30.00;31.20
62154;DHT22;48140;45.486;9.226;2023-05-07T14:32:52;30.10;31.40
62154;DHT22;48140;45.486;9.226;2023-05-07T14:35:17;30.50;31.10
62154;DHT22;48140;45.486;9.226;2023-05-07T14:37:43;30.60;30.30
62154;DHT22;48140;45.486;9.226;2023-05-07T14:40:09;30.70;30.00
62154;DHT22;48140;45.486;9.226;2023-05-07T14:42:35;31.00;30.00
62154;DHT22;48140;45.486;9.226;2023-05-07T14:45:01;31.00;29.80
62154;DHT22;48140;45.486;9.226;2023-05-07T14:47:27;31.20;30.00
62154;DHT22;48140;45.486;9.226;2023-05-07T14:49:53;31.00;30.10
62154;DHT22;48140;45.486;9.226;2023-05-07T14:52:19;30.00;31.70
62154;DHT22;48140;45.486;9.226;2023-05-07T14:54:45;29.50;32.60
62154;DHT22;48140;45.486;9.226;2023-05-07T14:57:14;29.00;33.70
62154;DHT22;48140;45.486;9.226;2023-05-07T14:59:42;28.90;34.00
62154;DHT22;48140;45.486;9.226;2023-05-07T15:02:08;28.70;34.20
62154;DHT22;48140;45.486;9.226;2023-05-07T15:04:56;28.70;34.80
62154;DHT22;48140;45.486;9.226;2023-05-07T15:07:21;28.80;35.40
62154;DHT22;48140;45.486;9.226;2023-05-07T15:13:11;28.80;34.90
62154;DHT22;48140;45.486;9.226;2023-05-07T15:15:37;28.80;34.40
62154;DHT22;48140;45.486;9.226;2023-05-07T16:59:01;26.00;43.80
62154;DHT22;48140;45.486;9.226;2023-05-07T17:02:13;25.90;44.70
62154;DHT22;48140;45.486;9.226;2023-05-07T17:11:41;25.80;45.90
62154;DHT22;48140;45.486;9.226;2023-05-07T18:39:17;24.10;39.20
62154;DHT22;48140;45.486;9.226;2023-05-07T19:02:30;23.30;37.20
62154;DHT22;48140;45.486;9.226;2023-05-07T22:09:50;21.10;85.50
62154;DHT22;48140;45.486;9.226;2023-05-07T22:12:41;21.10;86.30
62154;DHT22;48140;45.486;9.226;2023-05-07T22:15:46;21.00;86.70
62154;DHT22;48140;45.486;9.226;2023-05-07T22:28:52;21.00;85.30
62154;DHT22;48140;45.486;9.226;2023-05-07T22:49:00;21.00;74.00
62154;DHT22;48140;45.486;9.226;2023-05-07T23:44:36;20.50;87.20
